createdAt,value
2023-04-16T00:02:06.896Z,56.29
2023-04-16T00:04:33.934Z,56.33
2023-04-16T00:07:01.129Z,55.92
2023-04-16T00:09:27.936Z,56.26
2023-04-16T00:11:55.714Z,56.39
2023-04-16T00:14:22.540Z,56.13
2023-04-16T00:16:49.834Z,56.32
2023-04-16T00:19:17.276Z,56.51
2023-04-16T00:21:44.405Z,56.32
2023-04-16T00:24:12.413Z,56.19
2023-04-16T00:26:39.371Z,56.23
2023-04-16T00:29:06.171Z,56.67
2023-04-16T00:31:34.025Z,56.54
2023-04-16T00:34:03.357Z,56.62
2023-04-16T00:36:30.567Z,56.32
2023-04-16T00:38:57.601Z,56.33
2023-04-16T00:41:24.601Z,56.40
2023-04-16T00:43:51.862Z,56.56
2023-04-16T00:46:24.032Z,56.91
2023-04-16T00:48:52.262Z,56.64
2023-04-16T00:51:22.922Z,56.85
2023-04-16T00:53:50.713Z,56.57
2023-04-16T00:56:18.419Z,56.82
2023-04-16T00:58:45.456Z,56.72
2023-04-16T01:01:14.383Z,56.79
2023-04-16T01:03:46.391Z,56.73
2023-04-16T01:06:13.828Z,56.63
2023-04-16T01:08:40.840Z,56.93
2023-04-16T01:11:08.048Z,56.76
2023-04-16T01:13:39.224Z,56.78
2023-04-16T01:16:08.315Z,56.97
2023-04-16T01:18:36.542Z,56.63
2023-04-16T01:21:04.600Z,56.61
2023-04-16T01:23:32.269Z,56.67
2023-04-16T01:25:59.155Z,56.92
2023-04-16T01:28:26.057Z,56.72
2023-04-16T01:30:52.996Z,56.81
2023-04-16T01:33:29.442Z,56.72
2023-04-16T01:35:56.355Z,57.12
2023-04-16T01:38:23.236Z,57.04
2023-04-16T01:40:50.115Z,56.99
2023-04-16T01:43:17.414Z,57.00
2023-04-16T01:45:44.272Z,56.99
2023-04-16T01:48:12.276Z,57.04
2023-04-16T01:50:39.106Z,57.01
2023-04-16T01:53:06.173Z,57.17
2023-04-16T01:55:34.346Z,57.16
2023-04-16T01:58:01.188Z,57.21
2023-04-16T02:00:32.232Z,57.04
2023-04-16T02:02:59.513Z,57.16
2023-04-16T02:05:28.244Z,57.27
2023-04-16T02:07:55.128Z,57.30
2023-04-16T02:10:22.097Z,57.21
2023-04-16T02:12:48.994Z,57.25
2023-04-16T02:15:16.294Z,57.34
2023-04-16T02:17:43.252Z,57.35
2023-04-16T02:20:11.382Z,57.48
2023-04-16T02:22:58.457Z,57.14
2023-04-16T02:25:25.299Z,57.19
2023-04-16T02:27:55.076Z,57.08
2023-04-16T02:30:29.632Z,56.95
2023-04-16T02:32:56.472Z,57.18
2023-04-16T02:35:23.277Z,57.19
2023-04-16T02:37:50.290Z,57.10
2023-04-16T02:40:17.146Z,57.00
2023-04-16T02:42:43.964Z,57.11
2023-04-16T02:45:11.626Z,56.96
2023-04-16T02:47:38.488Z,57.17
2023-04-16T02:50:06.225Z,57.11
2023-04-16T02:52:33.598Z,57.04
2023-04-16T02:55:00.759Z,57.36
2023-04-16T02:57:27.638Z,57.20
2023-04-16T02:59:54.465Z,57.36
2023-04-16T03:02:21.722Z,57.41
2023-04-16T03:04:48.697Z,57.50
2023-04-16T03:07:15.884Z,57.46
2023-04-16T03:09:42.736Z,57.39
2023-04-16T03:12:09.565Z,57.64
2023-04-16T03:14:36.357Z,57.81
2023-04-16T03:17:03.147Z,57.97
2023-04-16T03:19:30.223Z,57.79
2023-04-16T03:21:56.980Z,57.71
2023-04-16T03:24:23.902Z,57.53
2023-04-16T03:26:50.736Z,57.63
2023-04-16T03:29:18.493Z,57.98
2023-04-16T03:31:45.421Z,57.84
2023-04-16T03:34:12.300Z,58.21
2023-04-16T03:36:40.717Z,58.09
2023-04-16T03:39:07.844Z,58.00
2023-04-16T03:41:35.966Z,58.16
2023-04-16T03:44:03.299Z,57.82
2023-04-16T03:46:30.422Z,57.90
2023-04-16T03:48:57.702Z,57.82
2023-04-16T03:51:25.053Z,57.83
2023-04-16T03:53:52.120Z,57.99
2023-04-16T03:56:19.668Z,57.79
2023-04-16T03:58:46.585Z,57.76
2023-04-16T04:01:13.411Z,57.70
2023-04-16T04:03:40.920Z,58.20
2023-04-16T04:06:09.030Z,57.82
2023-04-16T04:08:35.978Z,57.85
2023-04-16T04:11:05.370Z,58.01
2023-04-16T04:13:33.978Z,57.88
2023-04-16T04:16:01.048Z,57.61
2023-04-16T04:18:28.474Z,57.98
2023-04-16T04:20:55.274Z,57.82
2023-04-16T04:23:26.692Z,58.18
2023-04-16T04:25:53.533Z,58.15
2023-04-16T04:28:22.823Z,58.02
2023-04-16T04:30:49.856Z,57.73
2023-04-16T04:33:16.711Z,58.07
2023-04-16T04:35:43.515Z,57.93
2023-04-16T04:38:10.396Z,57.87
2023-04-16T04:40:37.286Z,57.88
2023-04-16T04:43:04.298Z,57.97
2023-04-16T04:45:32.172Z,57.71
2023-04-16T04:47:59.401Z,57.86
2023-04-16T04:50:26.330Z,57.91
2023-04-16T04:52:53.313Z,57.75
2023-04-16T04:55:20.468Z,58.04
2023-04-16T04:57:49.128Z,58.01
2023-04-16T05:00:16.396Z,58.00
2023-04-16T05:02:53.839Z,58.05
2023-04-16T05:05:20.874Z,58.14
2023-04-16T05:07:47.690Z,58.21
2023-04-16T05:10:14.733Z,58.31
2023-04-16T05:12:41.585Z,58.32
2023-04-16T05:15:09.079Z,58.27
2023-04-16T05:17:35.899Z,58.08
2023-04-16T05:20:02.775Z,58.29
2023-04-16T05:22:29.739Z,58.34
2023-04-16T05:24:56.538Z,58.16
2023-04-16T05:27:23.393Z,58.35
2023-04-16T05:29:50.197Z,58.34
2023-04-16T05:32:17.050Z,58.37
2023-04-16T05:34:43.876Z,58.17
2023-04-16T05:37:10.702Z,58.32
2023-04-16T05:39:37.623Z,58.32
2023-04-16T05:42:04.416Z,58.41
2023-04-16T05:44:31.378Z,58.12
2023-04-16T05:46:58.200Z,58.31
2023-04-16T05:49:25.026Z,58.31
2023-04-16T05:51:52.006Z,58.25
2023-04-16T05:54:18.779Z,58.42
2023-04-16T05:56:45.626Z,58.35
2023-04-16T05:59:12.503Z,58.18
2023-04-16T06:01:39.307Z,58.35
2023-04-16T06:04:06.310Z,58.54
2023-04-16T06:06:33.401Z,58.54
2023-04-16T06:09:00.172Z,58.73
2023-04-16T06:11:27.471Z,58.65
2023-04-16T06:13:54.264Z,58.81
2023-04-16T06:16:21.123Z,58.51
2023-04-16T06:18:48.272Z,58.75
2023-04-16T06:21:15.595Z,58.43
2023-04-16T06:23:42.401Z,58.51
2023-04-16T06:26:09.212Z,58.76
2023-04-16T06:28:36.086Z,58.55
2023-04-16T06:31:03.091Z,58.49
2023-04-16T06:33:29.932Z,58.72
2023-04-16T06:35:56.721Z,58.60
2023-04-16T06:38:23.482Z,58.39
2023-04-16T06:40:50.348Z,58.46
2023-04-16T06:43:17.898Z,58.50
2023-04-16T06:45:45.314Z,58.43
2023-04-16T06:48:12.109Z,58.39
2023-04-16T06:50:39.006Z,58.28
2023-04-16T06:53:05.839Z,58.21
2023-04-16T06:55:32.651Z,58.55
2023-04-16T06:57:59.480Z,58.52
2023-04-16T07:00:26.379Z,58.28
2023-04-16T07:02:54.252Z,58.37
2023-04-16T07:05:22.544Z,58.21
2023-04-16T07:07:49.435Z,58.45
2023-04-16T07:10:16.417Z,58.41
2023-04-16T07:12:43.268Z,58.65
2023-04-16T07:15:10.949Z,58.39
2023-04-16T07:17:38.119Z,58.18
2023-04-16T07:20:06.012Z,58.17
2023-04-16T07:22:32.838Z,58.23
2023-04-16T07:24:59.612Z,58.29
2023-04-16T07:27:26.425Z,58.13
2023-04-16T07:29:54.756Z,58.10
2023-04-16T07:32:22.721Z,58.08
2023-04-16T07:34:49.630Z,57.85
2023-04-16T07:37:16.452Z,57.96
2023-04-16T07:39:43.238Z,57.79
2023-04-16T07:42:10.075Z,57.88
2023-04-16T07:44:37.171Z,57.85
2023-04-16T07:47:05.523Z,57.83
2023-04-16T07:49:32.694Z,57.88
2023-04-16T07:51:59.503Z,57.92
2023-04-16T07:54:28.857Z,57.99
2023-04-16T07:56:56.044Z,58.02
2023-04-16T07:59:24.304Z,58.04
2023-04-16T08:01:53.724Z,58.11
2023-04-16T08:04:25.026Z,58.21
2023-04-16T08:06:52.793Z,57.97
2023-04-16T08:09:21.562Z,58.15
2023-04-16T08:11:49.742Z,58.05
2023-04-16T08:14:17.486Z,58.27
2023-04-16T08:16:44.604Z,58.13
2023-04-16T08:19:11.506Z,58.19
2023-04-16T08:21:38.571Z,58.12
2023-04-16T08:24:05.496Z,58.20
2023-04-16T08:26:32.391Z,58.20
2023-04-16T08:28:59.237Z,57.93
2023-04-16T08:31:26.219Z,58.15
2023-04-16T08:33:53.012Z,58.11
2023-04-16T08:36:19.781Z,58.00
2023-04-16T08:38:46.881Z,58.09
2023-04-16T08:41:13.952Z,58.14
2023-04-16T08:43:45.435Z,57.94
2023-04-16T08:46:12.708Z,58.00
2023-04-16T08:48:42.831Z,57.96
2023-04-16T08:51:10.998Z,57.70
2023-04-16T08:53:52.631Z,57.62
2023-04-16T08:56:24.129Z,57.56
2023-04-16T08:58:52.906Z,57.68
2023-04-16T09:01:20.241Z,57.71
2023-04-16T09:03:48.537Z,57.52
2023-04-16T09:06:16.601Z,57.40
2023-04-16T09:08:47.771Z,57.71
2023-04-16T09:11:17.600Z,57.62
2023-04-16T09:13:46.285Z,57.59
2023-04-16T09:16:14.698Z,57.66
2023-04-16T09:18:41.781Z,57.59
2023-04-16T09:21:11.148Z,57.75
2023-04-16T09:23:38.827Z,57.60
2023-04-16T09:26:06.246Z,57.62
2023-04-16T09:28:45.326Z,57.63
2023-04-16T09:31:18.558Z,57.46
2023-04-16T09:34:05.939Z,57.37
2023-04-16T09:36:33.563Z,57.50
2023-04-16T09:39:00.703Z,57.63
2023-04-16T09:41:30.742Z,57.51
2023-04-16T09:44:04.486Z,57.63
2023-04-16T09:46:37.484Z,57.41
2023-04-16T09:49:34.321Z,57.46
2023-04-16T09:52:02.235Z,57.33
2023-04-16T09:54:29.073Z,57.34
2023-04-16T09:56:57.276Z,57.35
2023-04-16T09:59:25.323Z,57.17
2023-04-16T10:01:57.261Z,57.22
2023-04-16T10:04:52.080Z,57.28
2023-04-16T10:07:19.662Z,57.29
2023-04-16T10:09:48.586Z,57.31
2023-04-16T10:12:16.451Z,57.21
2023-04-16T10:14:43.609Z,57.43
2023-04-16T10:17:10.605Z,57.33
2023-04-16T10:19:37.632Z,57.24
2023-04-16T10:22:04.814Z,57.34
2023-04-16T10:24:33.732Z,57.12
2023-04-16T10:27:01.100Z,57.30
2023-04-16T10:29:30.716Z,57.39
2023-04-16T10:31:58.537Z,57.25
2023-04-16T10:34:26.346Z,57.23
2023-04-16T10:36:54.254Z,57.48
2023-04-16T10:39:24.195Z,57.42
2023-04-16T10:41:51.579Z,57.33
2023-04-16T10:44:19.443Z,57.14
2023-04-16T10:46:49.687Z,57.27
2023-04-16T10:49:25.022Z,57.33
2023-04-16T10:52:03.127Z,57.25
2023-04-16T10:54:31.598Z,57.15
2023-04-16T10:57:04.376Z,57.22
2023-04-16T10:59:34.867Z,57.32
2023-04-16T11:02:07.786Z,57.43
2023-04-16T11:04:40.332Z,57.41
2023-04-16T11:07:16.405Z,57.46
2023-04-16T11:10:02.194Z,57.62
2023-04-16T11:12:44.881Z,57.40
2023-04-16T11:15:19.080Z,57.39
2023-04-16T11:17:52.000Z,57.57
2023-04-16T11:20:24.370Z,57.39
2023-04-16T11:22:56.544Z,57.59
2023-04-16T11:25:26.580Z,57.63
2023-04-16T11:27:53.694Z,57.52
2023-04-16T11:30:31.278Z,57.35
2023-04-16T11:32:58.164Z,57.43
2023-04-16T11:35:25.104Z,57.41
2023-04-16T11:37:57.192Z,57.48
2023-04-16T11:40:24.533Z,57.39
2023-04-16T11:42:51.341Z,57.44
2023-04-16T11:45:21.028Z,57.58
2023-04-16T11:47:52.537Z,57.54
2023-04-16T11:50:25.093Z,57.64
2023-04-16T11:52:54.630Z,57.71
2023-04-16T11:55:22.500Z,57.88
2023-04-16T11:57:51.671Z,58.02
2023-04-16T12:00:24.474Z,58.24
2023-04-16T12:02:55.625Z,58.17
2023-04-16T12:05:38.910Z,58.16
2023-04-16T12:08:08.972Z,57.97
2023-04-16T12:10:38.197Z,57.98
2023-04-16T12:13:12.682Z,57.79
2023-04-16T12:15:50.794Z,57.51
2023-04-16T12:18:23.587Z,57.55
2023-04-16T12:20:53.576Z,57.64
2023-04-16T12:23:27.710Z,57.56
2023-04-16T12:25:55.224Z,57.49
2023-04-16T12:28:38.210Z,57.63
2023-04-16T12:31:05.924Z,57.36
2023-04-16T12:33:33.010Z,57.54
2023-04-16T12:35:59.942Z,57.55
2023-04-16T12:38:27.537Z,57.70
2023-04-16T12:40:57.009Z,57.65
2023-04-16T12:43:24.462Z,57.58
2023-04-16T12:45:51.268Z,57.49
2023-04-16T12:48:18.140Z,57.63
2023-04-16T12:50:44.969Z,57.86
2023-04-16T12:53:12.288Z,57.85
2023-04-16T12:55:39.308Z,57.72
2023-04-16T12:58:06.726Z,57.85
2023-04-16T13:00:33.546Z,57.77
2023-04-16T13:03:00.476Z,57.71
2023-04-16T13:05:27.592Z,57.75
2023-04-16T13:07:54.594Z,57.58
2023-04-16T13:10:23.315Z,57.52
2023-04-16T13:12:50.206Z,57.54
2023-04-16T13:15:17.020Z,57.78
2023-04-16T13:17:43.886Z,57.75
2023-04-16T13:20:11.083Z,57.63
2023-04-16T13:22:38.023Z,57.59
2023-04-16T13:25:05.808Z,57.75
2023-04-16T13:27:32.613Z,57.64
2023-04-16T13:29:59.482Z,57.60
2023-04-16T13:32:26.500Z,57.77
2023-04-16T13:34:53.326Z,57.82
2023-04-16T13:37:20.163Z,57.78
2023-04-16T13:39:47.264Z,57.72
2023-04-16T13:42:14.093Z,57.79
2023-04-16T13:44:40.984Z,57.80
2023-04-16T13:47:08.001Z,57.94
2023-04-16T13:49:36.019Z,57.94
2023-04-16T13:52:03.548Z,57.83
2023-04-16T13:54:30.363Z,57.81
2023-04-16T13:56:57.355Z,57.67
2023-04-16T13:59:24.282Z,57.74
2023-04-16T14:01:51.556Z,57.77
2023-04-16T14:04:18.577Z,57.80
2023-04-16T14:06:45.606Z,57.90
2023-04-16T14:09:12.729Z,58.03
2023-04-16T14:11:39.726Z,58.16
2023-04-16T14:14:06.629Z,58.12
2023-04-16T14:16:34.778Z,58.10
2023-04-16T14:19:01.594Z,58.27
2023-04-16T14:21:28.716Z,58.22
2023-04-16T14:23:55.729Z,58.06
2023-04-16T14:26:22.813Z,58.04
2023-04-16T14:28:50.947Z,58.09
2023-04-16T14:31:18.146Z,58.08
2023-04-16T14:33:45.826Z,58.13
2023-04-16T14:36:12.793Z,58.02
2023-04-16T14:38:40.711Z,57.96
2023-04-16T14:41:07.524Z,57.86
2023-04-16T14:43:35.656Z,57.93
2023-04-16T14:46:04.876Z,57.90
2023-04-16T14:48:31.962Z,57.87
2023-04-16T14:50:58.784Z,57.86
2023-04-16T14:53:25.627Z,57.89
2023-04-16T14:55:53.326Z,57.89
2023-04-16T14:58:20.172Z,57.80
2023-04-16T15:00:47.009Z,57.93
2023-04-16T15:03:13.996Z,57.85
2023-04-16T15:05:41.097Z,57.91
2023-04-16T15:08:07.978Z,57.95
2023-04-16T15:10:35.002Z,57.82
2023-04-16T15:13:01.934Z,57.97
2023-04-16T15:15:29.180Z,58.09
2023-04-16T15:17:56.986Z,57.70
2023-04-16T15:20:24.240Z,58.01
2023-04-16T15:22:51.029Z,57.87
2023-04-16T15:25:17.839Z,58.00
2023-04-16T15:27:44.978Z,57.91
2023-04-16T15:30:12.990Z,58.08
2023-04-16T15:32:39.846Z,58.14
2023-04-16T15:35:08.210Z,58.03
2023-04-16T15:37:36.113Z,58.18
2023-04-16T15:40:05.466Z,58.18
2023-04-16T15:42:32.321Z,58.19
2023-04-16T15:44:59.225Z,58.24
2023-04-16T15:47:26.089Z,58.40
2023-04-16T15:49:53.082Z,58.51
2023-04-16T15:52:20.325Z,58.53
2023-04-16T15:54:49.614Z,58.67
2023-04-16T15:57:16.419Z,58.57
2023-04-16T15:59:50.128Z,58.95
2023-04-16T16:02:26.541Z,58.59
2023-04-16T16:04:53.640Z,58.64
2023-04-16T16:07:20.719Z,58.48
2023-04-16T16:09:48.005Z,58.49
2023-04-16T16:12:15.291Z,58.55
2023-04-16T16:14:44.154Z,58.62
2023-04-16T16:17:10.943Z,58.45
2023-04-16T16:19:37.751Z,58.55
2023-04-16T16:22:04.727Z,58.64
2023-04-16T16:24:31.553Z,58.62
2023-04-16T16:26:58.429Z,58.66
2023-04-16T16:29:25.504Z,58.78
2023-04-16T16:31:52.341Z,58.91
2023-04-16T16:34:21.254Z,58.94
2023-04-16T16:36:49.008Z,58.70
2023-04-16T16:39:15.926Z,58.82
2023-04-16T16:41:42.897Z,58.95
2023-04-16T16:44:09.734Z,58.95
2023-04-16T16:46:37.121Z,59.01
2023-04-16T16:49:05.896Z,59.26
2023-04-16T16:51:33.789Z,59.09
2023-04-16T16:54:00.625Z,59.12
2023-04-16T16:56:27.902Z,59.11
2023-04-16T16:58:54.750Z,59.14
2023-04-16T17:01:21.586Z,59.28
2023-04-16T17:03:48.705Z,59.19
2023-04-16T17:06:15.642Z,59.33
2023-04-16T17:08:43.509Z,59.21
2023-04-16T17:11:10.580Z,59.27
2023-04-16T17:13:37.647Z,59.29
2023-04-16T17:16:04.533Z,59.38
2023-04-16T17:18:31.301Z,59.25
2023-04-16T17:20:58.182Z,59.24
2023-04-16T17:23:24.957Z,59.17
2023-04-16T17:25:51.754Z,59.34
2023-04-16T17:28:18.633Z,59.36
2023-04-16T17:30:47.096Z,59.23
2023-04-16T17:33:14.439Z,59.20
2023-04-16T17:35:41.370Z,59.00
2023-04-16T17:38:08.389Z,59.14
2023-04-16T17:40:35.248Z,59.27
2023-04-16T17:43:02.121Z,59.10
2023-04-16T17:45:28.892Z,59.11
2023-04-16T17:47:55.744Z,59.03
2023-04-16T17:50:22.714Z,59.11
2023-04-16T17:52:49.768Z,59.20
2023-04-16T17:55:16.767Z,59.03
2023-04-16T17:57:44.669Z,59.01
2023-04-16T18:00:12.458Z,59.08
2023-04-16T18:02:43.657Z,58.93
2023-04-16T18:05:11.008Z,58.90
2023-04-16T18:07:38.877Z,58.79
2023-04-16T18:10:06.780Z,59.24
2023-04-16T18:12:33.848Z,58.88
2023-04-16T18:15:00.690Z,58.82
2023-04-16T18:17:29.633Z,58.83
2023-04-16T18:19:57.340Z,58.92
2023-04-16T18:22:25.702Z,58.79
2023-04-16T18:24:54.754Z,58.76
2023-04-16T18:27:21.567Z,58.57
2023-04-16T18:29:49.438Z,58.66
2023-04-16T18:32:16.662Z,58.71
2023-04-16T18:34:44.102Z,58.69
2023-04-16T18:37:11.173Z,58.73
2023-04-16T18:39:37.971Z,58.64
2023-04-16T18:42:05.018Z,58.75
2023-04-16T18:44:33.158Z,58.79
2023-04-16T18:47:00.460Z,58.71
2023-04-16T18:49:27.288Z,58.81
2023-04-16T18:51:59.262Z,58.71
2023-04-16T18:54:26.181Z,58.72
2023-04-16T18:56:52.952Z,58.66
2023-04-16T18:59:20.730Z,58.60
2023-04-16T19:01:47.910Z,58.72
2023-04-16T19:04:14.942Z,58.75
2023-04-16T19:06:41.795Z,58.42
2023-04-16T19:09:11.302Z,58.57
2023-04-16T19:11:38.456Z,58.66
2023-04-16T19:14:05.791Z,58.56
2023-04-16T19:16:32.593Z,58.68
2023-04-16T19:18:59.480Z,58.69
2023-04-16T19:21:27.659Z,58.68
2023-04-16T19:23:54.861Z,58.39
2023-04-16T19:26:23.165Z,58.71
2023-04-16T19:28:49.937Z,58.64
2023-04-16T19:31:17.301Z,58.46
2023-04-16T19:33:44.090Z,58.47
2023-04-16T19:36:11.308Z,58.25
2023-04-16T19:38:38.239Z,58.32
2023-04-16T19:41:05.164Z,58.26
2023-04-16T19:43:32.028Z,58.56
2023-04-16T19:45:59.313Z,58.33
2023-04-16T19:48:26.555Z,58.27
2023-04-16T19:50:55.656Z,58.24
2023-04-16T19:53:22.540Z,58.25
2023-04-16T19:55:49.572Z,58.37
2023-04-16T19:58:16.692Z,58.36
2023-04-16T20:00:43.746Z,58.56
2023-04-16T20:03:10.706Z,58.38
2023-04-16T20:05:37.554Z,58.51
2023-04-16T20:08:04.661Z,58.30
2023-04-16T20:10:32.550Z,58.39
2023-04-16T20:13:00.013Z,58.34
2023-04-16T20:15:27.151Z,58.43
2023-04-16T20:17:56.022Z,58.28
2023-04-16T20:20:23.473Z,58.26
2023-04-16T20:22:50.619Z,58.31
2023-04-16T20:25:20.543Z,58.05
2023-04-16T20:27:47.437Z,58.09
2023-04-16T20:30:14.986Z,58.17
2023-04-16T20:32:41.908Z,57.98
2023-04-16T20:35:11.260Z,58.25
2023-04-16T20:37:38.767Z,58.06
2023-04-16T20:40:09.425Z,57.94
2023-04-16T20:42:36.296Z,58.01
2023-04-16T20:45:03.435Z,58.07
2023-04-16T20:47:30.396Z,57.84
2023-04-16T20:49:58.094Z,57.95
2023-04-16T20:52:24.897Z,57.89
2023-04-16T20:54:52.264Z,57.89
2023-04-16T20:57:19.346Z,58.00
2023-04-16T20:59:46.287Z,57.84
2023-04-16T21:02:13.224Z,57.90
2023-04-16T21:04:40.377Z,57.87
2023-04-16T21:07:07.337Z,57.66
2023-04-16T21:09:34.183Z,57.73
2023-04-16T21:12:01.659Z,57.78
2023-04-16T21:14:28.495Z,57.71
2023-04-16T21:16:55.461Z,57.85
2023-04-16T21:19:22.450Z,57.79
2023-04-16T21:21:49.256Z,57.69
2023-04-16T21:24:16.038Z,57.65
2023-04-16T21:26:42.818Z,57.67
2023-04-16T21:29:09.733Z,57.59
2023-04-16T21:31:36.873Z,57.71
2023-04-16T21:34:03.713Z,57.63
2023-04-16T21:36:31.916Z,57.76
2023-04-16T21:38:58.774Z,57.69
2023-04-16T21:41:25.566Z,57.64
2023-04-16T21:43:52.366Z,57.76
2023-04-16T21:46:19.306Z,57.72
2023-04-16T21:48:48.228Z,57.69
2023-04-16T21:51:15.643Z,57.79
2023-04-16T21:53:42.407Z,57.82
2023-04-16T21:56:09.181Z,57.83
2023-04-16T21:58:35.934Z,57.89
2023-04-16T22:01:02.888Z,57.86
2023-04-16T22:03:31.154Z,57.81
2023-04-16T22:06:01.846Z,57.87
2023-04-16T22:08:29.462Z,57.85
2023-04-16T22:10:58.749Z,57.81
2023-04-16T22:13:26.362Z,57.92
2023-04-16T22:15:55.380Z,57.80
2023-04-16T22:18:25.434Z,57.93
2023-04-16T22:20:55.789Z,57.86
2023-04-16T22:23:24.955Z,57.90
2023-04-16T22:25:55.151Z,57.76
2023-04-16T22:28:22.238Z,57.87
2023-04-16T22:30:49.019Z,57.98
2023-04-16T22:33:16.183Z,57.95
2023-04-16T22:35:43.024Z,58.04
2023-04-16T22:38:10.271Z,58.02
2023-04-16T22:40:37.131Z,58.01
2023-04-16T22:43:04.186Z,57.94
2023-04-16T22:45:31.118Z,57.96
2023-04-16T22:47:58.044Z,57.77
2023-04-16T22:50:24.829Z,57.89
2023-04-16T22:52:51.629Z,57.86
2023-04-16T22:55:18.519Z,57.77
2023-04-16T22:57:45.825Z,58.13
2023-04-16T23:00:16.381Z,57.75
2023-04-16T23:02:44.104Z,57.78
2023-04-16T23:05:11.547Z,57.73
2023-04-16T23:07:38.591Z,57.66
2023-04-16T23:10:06.192Z,57.59
2023-04-16T23:12:33.110Z,57.66
2023-04-16T23:15:00.533Z,57.60
2023-04-16T23:17:28.102Z,57.57
2023-04-16T23:19:55.438Z,57.38
2023-04-16T23:22:22.236Z,57.32
2023-04-16T23:24:49.047Z,57.18
2023-04-16T23:27:15.891Z,57.13
2023-04-16T23:29:42.679Z,57.12
2023-04-16T23:32:09.519Z,57.17
2023-04-16T23:34:36.491Z,56.99
2023-04-16T23:37:03.285Z,56.87
2023-04-16T23:39:30.264Z,57.04
2023-04-16T23:41:57.488Z,56.85
2023-04-16T23:44:24.366Z,56.84
2023-04-16T23:46:51.220Z,57.00
2023-04-16T23:49:18.050Z,56.89
2023-04-16T23:51:44.876Z,56.70
2023-04-16T23:54:11.690Z,56.86
2023-04-16T23:56:38.593Z,56.83
2023-04-16T23:59:05.559Z,56.96
